createdAt,value
2017-09-02T00:02:20.219Z,100706.28
2017-09-02T00:04:47.792Z,100706.34
2017-09-02T00:07:15.230Z,100698.75
2017-09-02T00:09:42.960Z,100703.14
2017-09-02T00:12:10.402Z,100705.78
2017-09-02T00:14:37.886Z,100709.64
2017-09-02T00:17:05.370Z,100703.75
2017-09-02T00:19:32.894Z,100706.56
2017-09-02T00:22:00.358Z,100697.50
2017-09-02T00:24:27.869Z,100690.21
2017-09-02T00:26:55.429Z,100693.38
2017-09-02T00:29:22.990Z,100684.23
2017-09-02T00:31:50.473Z,100681.19
2017-09-02T00:34:17.929Z,100682.91
2017-09-02T00:36:45.460Z,100683.27
2017-09-02T00:39:13.326Z,100683.65
2017-09-02T00:41:40.841Z,100690.34
2017-09-02T00:44:08.296Z,100686.03
2017-09-02T00:46:35.772Z,100685.61
2017-09-02T00:49:03.240Z,100686.69
2017-09-02T00:51:30.737Z,100693.77
2017-09-02T00:53:58.212Z,100693.09
2017-09-02T00:56:25.698Z,100693.05
2017-09-02T00:58:53.178Z,100694.75
2017-09-02T01:01:20.734Z,100691.47
2017-09-02T01:03:48.217Z,100687.34
2017-09-02T01:06:15.704Z,100687.12
2017-09-02T01:08:43.162Z,100685.03
2017-09-02T01:11:10.641Z,100688.89
2017-09-02T01:13:38.125Z,100689.30
2017-09-02T01:16:05.701Z,100694.27
2017-09-02T01:18:33.665Z,100693.24
2017-09-02T01:21:01.207Z,100685.36
2017-09-02T01:23:28.760Z,100689.08
2017-09-02T01:25:56.299Z,100690.05
2017-09-02T01:28:23.776Z,100685.81
2017-09-02T01:30:51.795Z,100693.73
2017-09-02T01:33:19.297Z,100690.94
2017-09-02T01:35:46.747Z,100691.55
2017-09-02T01:38:14.261Z,100695.73
2017-09-02T01:40:41.728Z,100693.42
2017-09-02T01:43:09.342Z,100690.65
2017-09-02T01:45:36.803Z,100687.18
2017-09-02T01:48:04.281Z,100688.31
2017-09-02T01:50:31.784Z,100686.18
2017-09-02T01:52:59.307Z,100677.36
2017-09-02T01:55:26.814Z,100675.53
2017-09-02T01:57:54.308Z,100681.47
2017-09-02T02:00:21.757Z,100678.52
2017-09-02T02:02:49.240Z,100675.99
2017-09-02T02:05:16.696Z,100675.52
2017-09-02T02:07:44.187Z,100675.41
2017-09-02T02:10:11.659Z,100672.95
2017-09-02T02:12:39.137Z,100672.13
2017-09-02T02:15:06.607Z,100671.30
2017-09-02T02:17:34.064Z,100672.19
2017-09-02T02:20:01.593Z,100676.92
2017-09-02T02:22:29.056Z,100674.80
2017-09-02T02:24:56.609Z,100671.01
2017-09-02T02:27:24.165Z,100668.61
2017-09-02T02:29:51.657Z,100668.64
2017-09-02T02:32:19.233Z,100665.50
2017-09-02T02:34:46.740Z,100672.22
2017-09-02T02:37:14.209Z,100669.20
2017-09-02T02:39:41.773Z,100671.91
2017-09-02T02:42:09.229Z,100669.09
2017-09-02T02:44:36.793Z,100672.87
2017-09-02T02:47:04.326Z,100670.14
2017-09-02T02:49:31.900Z,100671.45
2017-09-02T02:51:59.369Z,100668.45
2017-09-02T02:54:26.903Z,100665.16
2017-09-02T02:56:54.369Z,100667.47
2017-09-02T02:59:22.007Z,100671.03
2017-09-02T03:01:49.545Z,100665.31
2017-09-02T03:04:17.049Z,100665.47
2017-09-02T03:06:44.598Z,100662.22
2017-09-02T03:09:12.159Z,100660.28
2017-09-02T03:11:39.616Z,100655.83
2017-09-02T03:14:07.125Z,100663.20
2017-09-02T03:16:34.576Z,100661.13
2017-09-02T03:19:02.080Z,100667.64
2017-09-02T03:21:29.638Z,100660.58
2017-09-02T03:23:57.091Z,100648.11
2017-09-02T03:26:24.574Z,100651.63
2017-09-02T03:28:52.109Z,100661.03
2017-09-02T03:31:19.600Z,100656.88
2017-09-02T03:33:47.061Z,100657.06
2017-09-02T03:36:14.553Z,100654.89
2017-09-02T03:38:42.040Z,100658.10
2017-09-02T03:41:09.513Z,100651.63
2017-09-02T03:43:37.065Z,100653.19
2017-09-02T03:46:04.584Z,100654.09
2017-09-02T03:48:32.033Z,100657.66
2017-09-02T03:50:59.688Z,100658.13
2017-09-02T03:53:27.201Z,100656.83
2017-09-02T03:55:54.678Z,100656.39
2017-09-02T03:58:22.131Z,100656.76
2017-09-02T04:00:49.629Z,100654.40
2017-09-02T04:03:17.085Z,100658.63
2017-09-02T04:05:44.583Z,100663.19
2017-09-02T04:08:12.148Z,100662.33
2017-09-02T04:10:39.687Z,100661.33
2017-09-02T04:13:07.255Z,100658.81
2017-09-02T04:15:34.732Z,100655.70
2017-09-02T04:18:02.212Z,100657.98
2017-09-02T04:20:29.725Z,100665.27
2017-09-02T04:22:57.228Z,100660.67
2017-09-02T04:25:26.300Z,100664.32
2017-09-02T04:27:53.841Z,100665.84
2017-09-02T04:30:21.394Z,100665.28
2017-09-02T04:32:48.895Z,100669.20
2017-09-02T04:35:16.412Z,100663.98
2017-09-02T04:37:43.891Z,100673.41
2017-09-02T04:40:11.424Z,100667.12
2017-09-02T04:42:39.126Z,100668.98
2017-09-02T04:45:06.647Z,100670.48
2017-09-02T04:47:34.151Z,100673.24
2017-09-02T04:50:01.605Z,100670.26
2017-09-02T04:52:29.134Z,100681.02
2017-09-02T04:54:56.670Z,100677.02
2017-09-02T04:57:24.229Z,100676.60
2017-09-02T04:59:51.796Z,100679.38
2017-09-02T05:02:19.357Z,100677.54
2017-09-02T05:04:46.818Z,100680.98
2017-09-02T05:07:14.373Z,100685.63
2017-09-02T05:09:42.181Z,100682.27
2017-09-02T05:12:09.838Z,100686.95
2017-09-02T05:14:37.400Z,100690.44
2017-09-02T05:17:04.898Z,100687.93
2017-09-02T05:19:32.356Z,100688.52
2017-09-02T05:21:59.924Z,100684.60
2017-09-02T05:24:27.405Z,100682.83
2017-09-02T05:26:54.896Z,100688.45
2017-09-02T05:29:22.377Z,100689.77
2017-09-02T05:31:49.900Z,100688.70
2017-09-02T05:34:17.377Z,100689.55
2017-09-02T05:36:44.832Z,100684.69
2017-09-02T05:39:12.336Z,100680.14
2017-09-02T05:41:39.878Z,100683.75
2017-09-02T05:44:07.353Z,100682.73
2017-09-02T05:46:34.809Z,100682.27
2017-09-02T05:49:02.294Z,100686.95
2017-09-02T05:51:29.750Z,100696.16
2017-09-02T05:53:57.232Z,100691.98
2017-09-02T05:56:24.749Z,100687.86
2017-09-02T05:58:52.255Z,100690.28
2017-09-02T06:01:19.725Z,100682.99
2017-09-02T06:03:47.296Z,100679.52
2017-09-02T06:06:14.768Z,100684.35
2017-09-02T06:08:42.248Z,100684.00
2017-09-02T06:11:09.703Z,100688.41
2017-09-02T06:13:37.221Z,100687.92
2017-09-02T06:16:04.785Z,100689.31
2017-09-02T06:18:32.248Z,100690.11
2017-09-02T06:20:59.801Z,100690.66
2017-09-02T06:23:27.288Z,100693.08
2017-09-02T06:25:54.776Z,100695.84
2017-09-02T06:28:22.268Z,100688.52
2017-09-02T06:30:49.749Z,100686.02
2017-09-02T06:33:17.272Z,100690.08
2017-09-02T06:35:44.753Z,100687.45
2017-09-02T06:38:12.388Z,100690.75
2017-09-02T06:40:39.976Z,100690.72
2017-09-02T06:43:07.529Z,100693.09
2017-09-02T06:45:35.040Z,100694.95
2017-09-02T06:48:02.509Z,100694.84
2017-09-02T06:50:29.997Z,100700.44
2017-09-02T06:52:57.460Z,100695.55
2017-09-02T06:55:24.944Z,100695.60
2017-09-02T06:57:52.395Z,100693.92
2017-09-02T07:00:19.897Z,100701.47
2017-09-02T07:02:47.348Z,100706.70
2017-09-02T07:05:14.841Z,100704.27
2017-09-02T07:07:42.401Z,100706.95
2017-09-02T07:10:09.904Z,100709.56
2017-09-02T07:12:37.409Z,100706.61
2017-09-02T07:15:04.964Z,100709.61
2017-09-02T07:17:32.573Z,100711.81
2017-09-02T07:20:00.613Z,100714.13
2017-09-02T07:22:28.180Z,100713.86
2017-09-02T07:24:55.665Z,100710.86
2017-09-02T07:27:23.215Z,100714.14
2017-09-02T07:29:50.708Z,100721.22
2017-09-02T07:32:18.189Z,100720.48
2017-09-02T07:34:45.776Z,100722.34
2017-09-02T07:37:13.312Z,100718.82
2017-09-02T07:39:40.776Z,100715.00
2017-09-02T07:42:08.252Z,100719.10
2017-09-02T07:44:36.469Z,100713.25
2017-09-02T07:47:03.947Z,100713.49
2017-09-02T07:49:31.405Z,100714.55
2017-09-02T07:51:58.885Z,100717.42
2017-09-02T07:54:26.440Z,100711.66
2017-09-02T07:56:53.977Z,100713.42
2017-09-02T07:59:21.440Z,100707.52
2017-09-02T08:01:48.952Z,100710.57
2017-09-02T08:04:16.425Z,100708.56
2017-09-02T08:06:43.898Z,100713.47
2017-09-02T08:09:11.361Z,100712.70
2017-09-02T08:11:38.844Z,100705.09
2017-09-02T08:14:06.308Z,100709.30
2017-09-02T08:16:33.836Z,100702.53
2017-09-02T08:19:01.394Z,100711.14
2017-09-02T08:21:28.846Z,100710.95
2017-09-02T08:23:59.085Z,100707.05
2017-09-02T08:26:26.630Z,100707.47
2017-09-02T08:28:54.109Z,100701.88
2017-09-02T08:31:21.580Z,100711.54
2017-09-02T08:33:49.105Z,100705.54
2017-09-02T08:36:16.981Z,100707.89
2017-09-02T08:38:44.459Z,100702.36
2017-09-02T08:41:11.945Z,100706.09
2017-09-02T08:43:39.428Z,100704.62
2017-09-02T08:46:06.889Z,100709.22
2017-09-02T08:48:34.401Z,100714.52
2017-09-02T08:51:01.861Z,100712.23
2017-09-02T08:53:29.340Z,100716.52
2017-09-02T08:55:56.797Z,100712.47
2017-09-02T08:58:24.301Z,100707.91
2017-09-02T09:00:51.761Z,100712.36
2017-09-02T09:03:19.301Z,100712.06
2017-09-02T09:05:46.761Z,100714.30
2017-09-02T09:08:14.237Z,100720.66
2017-09-02T09:10:41.764Z,100712.73
2017-09-02T09:13:09.337Z,100717.02
2017-09-02T09:15:36.949Z,100715.86
2017-09-02T09:18:04.424Z,100722.72
2017-09-02T09:20:31.872Z,100718.13
2017-09-02T09:22:59.364Z,100725.16
2017-09-02T09:25:28.341Z,100733.31
2017-09-02T09:27:55.813Z,100725.54
2017-09-02T09:30:23.296Z,100728.34
2017-09-02T09:32:50.783Z,100731.70
2017-09-02T09:35:18.313Z,100723.50
2017-09-02T09:37:46.437Z,100721.94
2017-09-02T09:40:13.909Z,100731.92
2017-09-02T09:42:41.817Z,100734.05
2017-09-02T09:45:09.332Z,100728.02
2017-09-02T09:47:36.893Z,100729.84
2017-09-02T09:50:04.377Z,100733.67
2017-09-02T09:52:32.302Z,100728.78
2017-09-02T09:55:00.010Z,100726.88
2017-09-02T09:57:27.494Z,100722.01
2017-09-02T09:59:54.968Z,100725.52
2017-09-02T10:02:22.429Z,100725.48
2017-09-02T10:04:49.909Z,100726.22
2017-09-02T10:07:17.375Z,100726.75
2017-09-02T10:09:44.862Z,100725.73
2017-09-02T10:12:12.362Z,100732.64
2017-09-02T10:14:39.841Z,100730.12
2017-09-02T10:17:07.292Z,100737.92
2017-09-02T10:19:34.780Z,100736.18
2017-09-02T10:22:02.231Z,100733.23
2017-09-02T10:24:29.765Z,100737.14
2017-09-02T10:26:57.253Z,100730.91
2017-09-02T10:29:24.713Z,100728.48
2017-09-02T10:31:52.228Z,100719.52
2017-09-02T10:34:19.742Z,100723.05
2017-09-02T10:36:47.215Z,100717.19
2017-09-02T10:39:14.701Z,100723.80
2017-09-02T10:41:42.273Z,100718.84
2017-09-02T10:44:14.682Z,100715.72
2017-09-02T10:46:42.259Z,100717.84
2017-09-02T10:49:10.160Z,100713.12
2017-09-02T10:51:37.641Z,100716.22
2017-09-02T10:54:05.147Z,100710.73
2017-09-02T10:56:32.637Z,100708.08
2017-09-02T10:59:01.329Z,100706.58
2017-09-02T11:01:28.876Z,100697.07
2017-09-02T11:03:56.441Z,100700.77
2017-09-02T11:06:23.941Z,100694.87
2017-09-02T11:08:51.399Z,100691.17
2017-09-02T11:11:18.877Z,100696.62
2017-09-02T11:13:46.394Z,100689.20
2017-09-02T11:16:13.885Z,100702.59
2017-09-02T11:18:41.341Z,100706.81
2017-09-02T11:21:08.825Z,100697.19
2017-09-02T11:23:36.276Z,100702.05
2017-09-02T11:26:03.800Z,100697.49
2017-09-02T11:28:31.309Z,100703.30
2017-09-02T11:30:58.776Z,100695.59
2017-09-02T11:36:00.033Z,100694.70
2017-09-02T11:38:27.587Z,100694.72
2017-09-02T11:40:55.122Z,100688.69
2017-09-02T11:43:22.601Z,100685.69
2017-09-02T11:45:50.056Z,100688.77
2017-09-02T11:48:17.544Z,100687.13
2017-09-02T11:50:45.021Z,100686.95
2017-09-02T11:53:12.501Z,100688.11
2017-09-02T11:55:39.969Z,100686.22
2017-09-02T11:58:07.583Z,100684.95
2017-09-02T12:00:35.092Z,100680.69
2017-09-02T12:03:02.685Z,100677.08
2017-09-02T12:05:30.242Z,100679.87
2017-09-02T12:07:57.781Z,100681.21
2017-09-02T12:10:25.241Z,100677.03
2017-09-02T12:12:52.804Z,100679.58
2017-09-02T12:15:20.276Z,100682.13
2017-09-02T12:17:47.826Z,100681.52
2017-09-02T12:20:15.373Z,100686.80
2017-09-02T12:22:42.856Z,100688.44
2017-09-02T12:25:10.341Z,100684.83
2017-09-02T12:27:37.840Z,100681.46
2017-09-02T12:30:05.356Z,100685.04
2017-09-02T12:32:32.865Z,100679.02
2017-09-02T12:35:00.425Z,100674.92
2017-09-02T12:37:28.017Z,100670.59
2017-09-02T12:39:55.537Z,100664.53
2017-09-02T12:42:23.099Z,100661.27
2017-09-02T12:44:50.577Z,100657.83
2017-09-02T12:47:18.045Z,100657.85
2017-09-02T12:49:45.567Z,100659.39
2017-09-02T12:52:13.070Z,100657.95
2017-09-02T12:54:40.545Z,100660.99
2017-09-02T12:57:08.000Z,100656.11
2017-09-02T12:59:35.505Z,100658.64
2017-09-02T13:02:02.958Z,100651.56
2017-09-02T13:04:30.897Z,100650.53
2017-09-02T13:06:58.982Z,100658.22
2017-09-02T13:09:26.526Z,100661.23
2017-09-02T13:11:54.218Z,100654.00
2017-09-02T13:14:21.768Z,100655.31
2017-09-02T13:16:49.238Z,100654.83
2017-09-02T13:19:16.716Z,100651.02
2017-09-02T13:21:44.179Z,100650.79
2017-09-02T13:24:11.657Z,100650.09
2017-09-02T13:26:39.143Z,100642.94
2017-09-02T13:29:06.646Z,100643.55
2017-09-02T13:31:34.176Z,100632.27
2017-09-02T13:34:01.721Z,100637.14
2017-09-02T13:36:29.193Z,100634.16
2017-09-02T13:38:56.650Z,100633.64
2017-09-02T13:41:24.208Z,100633.76
2017-09-02T13:43:51.668Z,100637.08
2017-09-02T13:46:19.148Z,100639.16
2017-09-02T13:48:46.646Z,100639.33
2017-09-02T13:51:14.133Z,100645.59
2017-09-02T13:53:41.687Z,100644.94
2017-09-02T13:56:09.245Z,100648.72
2017-09-02T13:58:36.812Z,100649.91
2017-09-02T14:01:04.363Z,100652.09
2017-09-02T14:03:31.845Z,100647.14
2017-09-02T14:05:59.357Z,100651.19
2017-09-02T14:08:26.821Z,100651.22
2017-09-02T14:10:54.368Z,100652.71
2017-09-02T14:13:22.485Z,100652.58
2017-09-02T14:15:49.980Z,100643.53
2017-09-02T14:18:17.480Z,100652.14
2017-09-02T14:20:45.020Z,100647.00
2017-09-02T14:23:12.597Z,100656.38
2017-09-02T14:25:40.105Z,100644.34
2017-09-02T14:28:07.613Z,100651.83
2017-09-02T14:30:35.077Z,100650.31
2017-09-02T14:33:02.586Z,100646.66
2017-09-02T14:35:30.053Z,100653.19
2017-09-02T14:37:57.530Z,100657.49
2017-09-02T14:40:25.093Z,100652.77
2017-09-02T14:42:52.577Z,100653.97
2017-09-02T14:45:20.121Z,100657.73
2017-09-02T14:47:47.608Z,100651.18
2017-09-02T14:50:15.124Z,100651.33
2017-09-02T14:52:42.689Z,100649.95
2017-09-02T14:55:10.193Z,100645.49
2017-09-02T14:57:37.709Z,100638.44
2017-09-02T15:00:05.185Z,100635.55
2017-09-02T15:02:32.647Z,100641.02
2017-09-02T15:05:00.496Z,100639.39
2017-09-02T15:07:28.089Z,100636.13
2017-09-02T15:09:55.577Z,100636.02
2017-09-02T15:12:23.062Z,100643.34
2017-09-02T15:14:50.545Z,100636.77
2017-09-02T15:17:18.105Z,100638.18
2017-09-02T15:19:45.632Z,100638.27
2017-09-02T15:22:13.104Z,100640.59
2017-09-02T15:24:40.667Z,100640.56
2017-09-02T15:27:08.218Z,100641.36
2017-09-02T15:29:35.720Z,100641.67
2017-09-02T15:32:03.568Z,100647.21
2017-09-02T15:34:31.069Z,100642.76
2017-09-02T15:36:58.654Z,100641.10
2017-09-02T15:39:26.115Z,100639.52
2017-09-02T15:41:53.671Z,100642.26
2017-09-02T15:44:21.213Z,100636.13
2017-09-02T15:46:48.717Z,100641.05
2017-09-02T15:49:16.178Z,100644.03
2017-09-02T15:51:43.794Z,100649.17
2017-09-02T15:54:11.297Z,100642.46
2017-09-02T15:56:38.789Z,100647.95
2017-09-02T15:59:06.261Z,100648.58
2017-09-02T16:01:33.871Z,100644.97
2017-09-02T16:04:01.412Z,100645.70
2017-09-02T16:06:28.924Z,100635.47
2017-09-02T16:08:56.380Z,100630.67
2017-09-02T16:11:23.861Z,100630.49
2017-09-02T16:13:51.358Z,100625.91
2017-09-02T16:16:18.881Z,100624.08
2017-09-02T16:18:46.357Z,100627.77
2017-09-02T16:21:13.832Z,100630.41
2017-09-02T16:23:41.297Z,100632.70
2017-09-02T16:26:08.802Z,100625.42
2017-09-02T16:28:36.276Z,100626.56
2017-09-02T16:31:03.825Z,100621.09
2017-09-02T16:33:31.279Z,100615.20
2017-09-02T16:35:58.756Z,100617.92
2017-09-02T16:38:26.472Z,100611.44
2017-09-02T16:40:53.928Z,100609.98
2017-09-02T16:43:21.400Z,100609.98
2017-09-02T16:45:48.853Z,100609.50
2017-09-02T16:48:16.331Z,100611.75
2017-09-02T16:50:43.789Z,100615.68
2017-09-02T16:53:11.264Z,100611.81
2017-09-02T16:55:38.745Z,100609.20
2017-09-02T16:58:06.239Z,100614.68
2017-09-02T17:00:33.696Z,100618.28
2017-09-02T17:03:01.173Z,100622.50
2017-09-02T17:05:28.644Z,100627.20
2017-09-02T17:07:56.121Z,100632.21
2017-09-02T17:10:23.614Z,100631.37
2017-09-02T17:12:51.094Z,100634.88
2017-09-02T17:15:18.552Z,100638.95
2017-09-02T17:17:46.052Z,100642.07
2017-09-02T17:20:13.513Z,100644.74
2017-09-02T17:22:40.989Z,100647.61
2017-09-02T17:25:08.456Z,100650.73
2017-09-02T17:27:35.971Z,100655.34
2017-09-02T17:30:03.449Z,100662.41
2017-09-02T17:32:30.940Z,100668.44
2017-09-02T17:34:58.396Z,100667.17
2017-09-02T17:37:25.888Z,100674.13
2017-09-02T17:39:53.351Z,100676.10
2017-09-02T17:42:20.869Z,100669.55
2017-09-02T17:44:48.937Z,100677.64
2017-09-02T17:47:16.421Z,100680.20
2017-09-02T17:49:44.237Z,100680.14
2017-09-02T17:52:11.714Z,100681.44
2017-09-02T17:54:39.204Z,100686.08
2017-09-02T17:57:06.661Z,100689.34
2017-09-02T17:59:34.137Z,100693.11
2017-09-02T18:02:01.645Z,100688.31
2017-09-02T18:04:29.117Z,100696.38
2017-09-02T18:06:56.615Z,100699.88
2017-09-02T18:09:24.096Z,100695.73
2017-09-02T18:11:51.550Z,100695.33
2017-09-02T18:14:19.056Z,100691.06
2017-09-02T18:16:46.517Z,100689.14
2017-09-02T18:19:13.999Z,100689.34
2017-09-02T18:21:41.449Z,100697.00
2017-09-02T18:24:09.105Z,100697.23
2017-09-02T18:26:36.585Z,100699.88
2017-09-02T18:29:04.032Z,100705.37
2017-09-02T18:31:31.533Z,100707.91
2017-09-02T18:33:58.998Z,100706.20
2017-09-02T18:36:26.545Z,100706.41
2017-09-02T18:38:54.114Z,100706.96
2017-09-02T18:41:21.594Z,100716.81
2017-09-02T18:43:49.057Z,100710.23
2017-09-02T18:46:16.592Z,100722.74
2017-09-02T18:48:44.048Z,100721.50
2017-09-02T18:51:11.529Z,100724.76
2017-09-02T18:53:38.990Z,100723.86
2017-09-02T18:56:06.469Z,100726.92
2017-09-02T18:58:34.012Z,100729.77
2017-09-02T19:01:01.499Z,100723.69
2017-09-02T19:03:28.969Z,100726.19
2017-09-02T19:05:56.668Z,100730.10
2017-09-02T19:08:24.124Z,100736.27
2017-09-02T19:10:51.637Z,100736.11
2017-09-02T19:13:19.123Z,100728.53
2017-09-02T19:15:46.603Z,100727.45
2017-09-02T19:18:14.921Z,100729.58
2017-09-02T19:20:42.450Z,100728.59
2017-09-02T19:23:10.035Z,100735.63
2017-09-02T19:25:37.671Z,100746.33
2017-09-02T19:28:05.393Z,100741.64
2017-09-02T19:30:33.017Z,100741.67
2017-09-02T19:33:00.566Z,100746.50
2017-09-02T19:35:28.081Z,100741.17
2017-09-02T19:37:55.573Z,100750.92
2017-09-02T19:40:23.043Z,100741.60
2017-09-02T19:42:50.529Z,100749.13
2017-09-02T19:45:18.041Z,100746.23
2017-09-02T19:47:45.582Z,100749.80
2017-09-02T19:50:13.210Z,100746.22
2017-09-02T19:52:40.821Z,100754.40
2017-09-02T19:55:08.284Z,100747.64
2017-09-02T19:57:35.830Z,100747.56
2017-09-02T20:00:03.304Z,100734.14
2017-09-02T20:02:30.833Z,100738.23
2017-09-02T20:04:58.346Z,100736.23
2017-09-02T20:07:25.852Z,100735.84
2017-09-02T20:09:53.320Z,100735.05
2017-09-02T20:12:20.807Z,100738.28
2017-09-02T20:14:48.293Z,100732.02
2017-09-02T20:17:15.788Z,100735.20
2017-09-02T20:19:43.518Z,100737.27
2017-09-02T20:22:11.005Z,100737.90
2017-09-02T20:24:38.473Z,100734.81
2017-09-02T20:27:06.286Z,100736.58
2017-09-02T20:29:33.859Z,100741.09
2017-09-02T20:32:01.348Z,100748.67
2017-09-02T20:34:28.833Z,100747.40
2017-09-02T20:36:56.326Z,100751.56
2017-09-02T20:39:23.869Z,100755.43
2017-09-02T20:41:51.437Z,100758.72
2017-09-02T20:44:18.921Z,100767.06
2017-09-02T20:46:46.626Z,100764.97
2017-09-02T20:49:14.208Z,100767.72
2017-09-02T20:51:41.773Z,100769.86
2017-09-02T20:54:09.273Z,100765.23
2017-09-02T20:56:36.751Z,100763.84
2017-09-02T20:59:04.249Z,100776.92
2017-09-02T21:01:31.805Z,100775.70
2017-09-02T21:03:59.317Z,100782.80
2017-09-02T21:06:26.820Z,100783.89
2017-09-02T21:08:54.315Z,100769.88
2017-09-02T21:11:21.833Z,100778.69
2017-09-02T21:13:49.347Z,100777.39
2017-09-02T21:16:16.801Z,100777.20
2017-09-02T21:18:44.298Z,100780.31
2017-09-02T21:21:11.770Z,100778.16
2017-09-02T21:23:39.249Z,100767.42
2017-09-02T21:26:06.777Z,100766.15
2017-09-02T21:28:34.289Z,100760.44
2017-09-02T21:31:01.768Z,100760.55
2017-09-02T21:33:29.248Z,100759.52
2017-09-02T21:35:56.705Z,100752.95
2017-09-02T21:38:24.186Z,100745.23
2017-09-02T21:40:51.717Z,100739.08
2017-09-02T21:43:19.205Z,100740.09
2017-09-02T21:45:46.793Z,100730.27
2017-09-02T21:48:14.284Z,100737.42
2017-09-02T21:50:41.852Z,100731.69
2017-09-02T21:53:09.331Z,100731.86
2017-09-02T21:55:36.864Z,100727.71
2017-09-02T21:58:04.433Z,100731.41
2017-09-02T22:00:31.985Z,100725.91
2017-09-02T22:02:59.551Z,100731.00
2017-09-02T22:05:27.104Z,100730.75
2017-09-02T22:07:54.607Z,100736.41
2017-09-02T22:10:22.081Z,100743.38
2017-09-02T22:12:49.589Z,100736.09
2017-09-02T22:15:17.042Z,100739.95
2017-09-02T22:17:44.492Z,100740.94
2017-09-02T22:20:11.984Z,100742.18
2017-09-02T22:22:39.514Z,100749.48
2017-09-02T22:25:07.062Z,100745.61
2017-09-02T22:27:34.621Z,100747.77
2017-09-02T22:30:02.183Z,100748.30
2017-09-02T22:32:29.646Z,100754.23
2017-09-02T22:34:57.140Z,100748.20
2017-09-02T22:37:24.753Z,100747.62
2017-09-02T22:39:52.258Z,100746.91
2017-09-02T22:42:19.721Z,100735.76
2017-09-02T22:44:47.205Z,100735.67
2017-09-02T22:47:14.729Z,100735.13
2017-09-02T22:49:42.236Z,100739.28
2017-09-02T22:52:09.697Z,100742.16
2017-09-02T22:54:37.194Z,100745.34
2017-09-02T22:57:04.655Z,100745.11
2017-09-02T22:59:32.137Z,100741.91
2017-09-02T23:01:59.629Z,100741.61
2017-09-02T23:04:27.110Z,100734.31
2017-09-02T23:06:54.578Z,100731.47
2017-09-02T23:09:22.143Z,100732.37
2017-09-02T23:11:49.657Z,100728.63
2017-09-02T23:14:17.212Z,100720.24
2017-09-02T23:16:44.669Z,100718.39
2017-09-02T23:19:12.163Z,100722.51
2017-09-02T23:21:39.685Z,100717.91
2017-09-02T23:24:07.172Z,100713.66
2017-09-02T23:26:34.709Z,100711.89
2017-09-02T23:29:02.184Z,100710.95
2017-09-02T23:31:29.635Z,100709.05
2017-09-02T23:33:57.174Z,100708.06
2017-09-02T23:36:24.632Z,100706.08
2017-09-02T23:38:52.102Z,100707.80
2017-09-02T23:41:19.595Z,100703.88
2017-09-02T23:43:47.044Z,100703.12
2017-09-02T23:46:14.536Z,100703.18
2017-09-02T23:48:41.998Z,100703.12
2017-09-02T23:51:09.476Z,100701.28
2017-09-02T23:53:37.024Z,100705.55
2017-09-02T23:56:04.505Z,100707.69
2017-09-02T23:58:31.992Z,100705.95
